sensor_id;sensor_type;location;lat;lon;timestamp;temperature;humidity
4960;DHT22;2495;48.200;11.532;2023-04-25T00:00:27;11.30;69.60
4960;DHT22;2495;48.200;11.532;2023-04-25T00:05:29;11.30;69.90
4960;DHT22;2495;48.200;11.532;2023-04-25T00:10:30;11.40;70.10
4960;DHT22;2495;48.200;11.532;2023-04-25T00:15:31;11.40;70.20
4960;DHT22;2495;48.200;11.532;2023-04-25T00:20:33;11.40;70.30
4960;DHT22;2495;48.200;11.532;2023-04-25T00:25:35;11.40;70.50
4960;DHT22;2495;48.200;11.532;2023-04-25T00:30:36;11.40;70.30
4960;DHT22;2495;48.200;11.532;2023-04-25T00:35:38;11.40;70.50
4960;DHT22;2495;48.200;11.532;2023-04-25T00:40:39;11.40;70.60
4960;DHT22;2495;48.200;11.532;2023-04-25T00:45:40;11.40;70.90
4960;DHT22;2495;48.200;11.532;2023-04-25T00:50:43;11.30;71.10
4960;DHT22;2495;48.200;11.532;2023-04-25T00:55:43;11.20;71.70
4960;DHT22;2495;48.200;11.532;2023-04-25T01:00:45;11.30;73.30
4960;DHT22;2495;48.200;11.532;2023-04-25T01:05:46;11.40;72.10
4960;DHT22;2495;48.200;11.532;2023-04-25T01:10:47;11.40;71.70
4960;DHT22;2495;48.200;11.532;2023-04-25T01:15:48;11.20;71.60
4960;DHT22;2495;48.200;11.532;2023-04-25T01:20:53;11.20;71.80
4960;DHT22;2495;48.200;11.532;2023-04-25T01:25:54;11.10;72.30
4960;DHT22;2495;48.200;11.532;2023-04-25T01:30:56;11.10;72.20
4960;DHT22;2495;48.200;11.532;2023-04-25T01:35:57;10.90;72.60
4960;DHT22;2495;48.200;11.532;2023-04-25T01:40:59;10.80;72.80
4960;DHT22;2495;48.200;11.532;2023-04-25T01:46:00;10.80;72.50
4960;DHT22;2495;48.200;11.532;2023-04-25T01:51:02;10.70;73.00
4960;DHT22;2495;48.200;11.532;2023-04-25T01:56:06;10.60;73.30
4960;DHT22;2495;48.200;11.532;2023-04-25T02:01:07;10.50;73.40
4960;DHT22;2495;48.200;11.532;2023-04-25T02:06:09;10.50;73.30
4960;DHT22;2495;48.200;11.532;2023-04-25T02:11:10;10.50;73.70
4960;DHT22;2495;48.200;11.532;2023-04-25T02:16:11;10.50;73.60
4960;DHT22;2495;48.200;11.532;2023-04-25T02:21:13;10.50;73.70
4960;DHT22;2495;48.200;11.532;2023-04-25T02:26:14;10.50;73.60
4960;DHT22;2495;48.200;11.532;2023-04-25T02:31:15;10.50;73.60
4960;DHT22;2495;48.200;11.532;2023-04-25T02:36:17;10.60;73.70
4960;DHT22;2495;48.200;11.532;2023-04-25T02:41:18;10.60;73.80
4960;DHT22;2495;48.200;11.532;2023-04-25T02:46:20;10.60;73.50
4960;DHT22;2495;48.200;11.532;2023-04-25T02:51:21;10.60;73.40
4960;DHT22;2495;48.200;11.532;2023-04-25T02:56:23;10.70;73.90
4960;DHT22;2495;48.200;11.532;2023-04-25T03:01:25;10.70;73.30
4960;DHT22;2495;48.200;11.532;2023-04-25T03:06:26;10.70;73.50
4960;DHT22;2495;48.200;11.532;2023-04-25T03:11:27;10.80;73.30
4960;DHT22;2495;48.200;11.532;2023-04-25T03:16:31;10.80;73.20
4960;DHT22;2495;48.200;11.532;2023-04-25T03:21:32;10.80;72.80
4960;DHT22;2495;48.200;11.532;2023-04-25T03:26:34;10.70;72.80
4960;DHT22;2495;48.200;11.532;2023-04-25T03:31:35;10.70;72.80
4960;DHT22;2495;48.200;11.532;2023-04-25T03:36:37;10.60;72.70
4960;DHT22;2495;48.200;11.532;2023-04-25T03:41:38;10.60;72.70
4960;DHT22;2495;48.200;11.532;2023-04-25T03:46:40;10.50;72.50
4960;DHT22;2495;48.200;11.532;2023-04-25T03:51:41;10.40;72.60
4960;DHT22;2495;48.200;11.532;2023-04-25T03:56:43;10.30;72.60
4960;DHT22;2495;48.200;11.532;2023-04-25T04:01:44;10.20;72.70
4960;DHT22;2495;48.200;11.532;2023-04-25T04:06:45;10.20;72.80
4960;DHT22;2495;48.200;11.532;2023-04-25T04:11:47;10.20;72.80
4960;DHT22;2495;48.200;11.532;2023-04-25T04:16:48;10.10;72.90
4960;DHT22;2495;48.200;11.532;2023-04-25T04:21:50;10.10;73.10
4960;DHT22;2495;48.200;11.532;2023-04-25T04:26:52;10.20;73.50
4960;DHT22;2495;48.200;11.532;2023-04-25T04:32:04;10.30;73.40
4960;DHT22;2495;48.200;11.532;2023-04-25T04:37:34;10.20;73.20
4960;DHT22;2495;48.200;11.532;2023-04-25T04:42:39;10.20;73.20
4960;DHT22;2495;48.200;11.532;2023-04-25T04:47:40;10.20;72.40
4960;DHT22;2495;48.200;11.532;2023-04-25T04:52:42;10.20;72.90
4960;DHT22;2495;48.200;11.532;2023-04-25T04:57:44;10.20;73.70
4960;DHT22;2495;48.200;11.532;2023-04-25T05:02:45;10.20;72.70
4960;DHT22;2495;48.200;11.532;2023-04-25T05:07:47;10.20;73.00
4960;DHT22;2495;48.200;11.532;2023-04-25T05:12:48;10.30;73.20
4960;DHT22;2495;48.200;11.532;2023-04-25T05:17:50;10.40;73.10
4960;DHT22;2495;48.200;11.532;2023-04-25T05:22:51;10.40;72.90
4960;DHT22;2495;48.200;11.532;2023-04-25T05:27:53;10.40;73.50
4960;DHT22;2495;48.200;11.532;2023-04-25T05:32:54;10.50;75.00
4960;DHT22;2495;48.200;11.532;2023-04-25T05:37:56;10.50;75.00
4960;DHT22;2495;48.200;11.532;2023-04-25T05:43:06;10.50;73.70
4960;DHT22;2495;48.200;11.532;2023-04-25T05:48:07;10.40;73.60
4960;DHT22;2495;48.200;11.532;2023-04-25T05:53:09;10.30;74.50
4960;DHT22;2495;48.200;11.532;2023-04-25T05:58:13;10.30;74.50
4960;DHT22;2495;48.200;11.532;2023-04-25T06:03:15;10.20;75.50
4960;DHT22;2495;48.200;11.532;2023-04-25T06:08:16;10.30;75.90
4960;DHT22;2495;48.200;11.532;2023-04-25T06:13:18;10.30;76.70
4960;DHT22;2495;48.200;11.532;2023-04-25T06:18:19;10.30;76.70
4960;DHT22;2495;48.200;11.532;2023-04-25T06:23:21;10.50;78.20
4960;DHT22;2495;48.200;11.532;2023-04-25T06:28:23;10.60;75.90
4960;DHT22;2495;48.200;11.532;2023-04-25T06:33:25;10.60;76.40
4960;DHT22;2495;48.200;11.532;2023-04-25T06:38:26;10.60;75.10
4960;DHT22;2495;48.200;11.532;2023-04-25T06:43:28;10.50;75.50
4960;DHT22;2495;48.200;11.532;2023-04-25T06:48:30;10.50;75.90
4960;DHT22;2495;48.200;11.532;2023-04-25T06:53:31;10.90;76.30
4960;DHT22;2495;48.200;11.532;2023-04-25T06:58:32;11.30;73.80
4960;DHT22;2495;48.200;11.532;2023-04-25T07:03:34;11.30;74.20
4960;DHT22;2495;48.200;11.532;2023-04-25T07:08:36;11.20;74.00
4960;DHT22;2495;48.200;11.532;2023-04-25T07:13:37;11.50;74.70
4960;DHT22;2495;48.200;11.532;2023-04-25T07:18:39;11.40;74.40
4960;DHT22;2495;48.200;11.532;2023-04-25T07:23:40;11.30;75.00
4960;DHT22;2495;48.200;11.532;2023-04-25T07:28:42;11.30;75.40
4960;DHT22;2495;48.200;11.532;2023-04-25T07:33:44;11.60;74.20
4960;DHT22;2495;48.200;11.532;2023-04-25T07:38:45;12.20;73.10
4960;DHT22;2495;48.200;11.532;2023-04-25T07:43:47;12.70;70.60
4960;DHT22;2495;48.200;11.532;2023-04-25T07:48:48;12.70;68.20
4960;DHT22;2495;48.200;11.532;2023-04-25T07:53:53;13.60;67.70
4960;DHT22;2495;48.200;11.532;2023-04-25T07:58:54;14.30;66.60
4960;DHT22;2495;48.200;11.532;2023-04-25T08:03:56;15.80;61.30
4960;DHT22;2495;48.200;11.532;2023-04-25T08:09:00;17.00;59.30
4960;DHT22;2495;48.200;11.532;2023-04-25T08:14:02;17.50;58.60
4960;DHT22;2495;48.200;11.532;2023-04-25T08:19:06;17.10;57.60
4960;DHT22;2495;48.200;11.532;2023-04-25T08:24:06;16.90;58.00
4960;DHT22;2495;48.200;11.532;2023-04-25T09:11:43;18.90;49.30
4960;DHT22;2495;48.200;11.532;2023-04-25T09:17:08;18.00;47.60
